createdAt,value
2024-01-08T00:00:09.363Z,-2.50
2024-01-08T00:02:38.038Z,-2.50
2024-01-08T00:05:07.020Z,-2.60
2024-01-08T00:07:35.538Z,-2.50
2024-01-08T00:10:05.958Z,-2.70
2024-01-08T00:12:34.506Z,-2.70
2024-01-08T00:15:02.985Z,-2.60
2024-01-08T00:17:31.556Z,-2.50
2024-01-08T00:20:00.207Z,-2.60
2024-01-08T00:22:28.762Z,-2.60
2024-01-08T00:24:57.373Z,-2.70
2024-01-08T00:27:27.273Z,-2.70
2024-01-08T00:29:55.802Z,-2.70
2024-01-08T00:32:24.390Z,-2.70
2024-01-08T00:34:53.024Z,-2.80
2024-01-08T00:37:21.469Z,-2.70
2024-01-08T00:39:50.401Z,-2.80
2024-01-08T00:42:18.925Z,-2.80
2024-01-08T00:44:50.143Z,-2.90
2024-01-08T00:47:18.618Z,-2.80
2024-01-08T00:49:47.200Z,-2.80
2024-01-08T00:52:15.768Z,-2.80
2024-01-08T00:54:44.257Z,-3.00
2024-01-08T00:57:12.772Z,-2.90
2024-01-08T00:59:41.340Z,-2.90
2024-01-08T01:02:11.338Z,-2.90
2024-01-08T01:04:39.973Z,-2.80
2024-01-08T01:07:08.636Z,-2.90
2024-01-08T01:09:37.144Z,-2.90
2024-01-08T01:12:06.118Z,-2.80
2024-01-08T01:14:34.790Z,-2.90
2024-01-08T01:17:03.582Z,-2.90
2024-01-08T01:19:33.587Z,-2.80
2024-01-08T01:22:02.148Z,-2.80
2024-01-08T01:24:30.634Z,-2.90
2024-01-08T01:26:59.188Z,-2.80
2024-01-08T01:29:27.688Z,-2.90
2024-01-08T01:31:56.274Z,-2.90
2024-01-08T01:34:24.843Z,-3.00
2024-01-08T01:36:55.200Z,-3.00
2024-01-08T01:39:23.711Z,-2.90
2024-01-08T01:41:53.621Z,-2.90
2024-01-08T01:44:23.338Z,-3.00
2024-01-08T01:46:53.210Z,-3.00
2024-01-08T01:49:23.469Z,-3.00
2024-01-08T01:51:54.753Z,-3.00
2024-01-08T01:54:25.116Z,-3.00
2024-01-08T01:56:57.229Z,-3.10
2024-01-08T01:59:29.258Z,-3.10
2024-01-08T02:01:59.286Z,-3.10
2024-01-08T02:04:28.433Z,-3.10
2024-01-08T02:06:58.836Z,-3.20
2024-01-08T02:09:29.239Z,-3.10
2024-01-08T02:11:57.779Z,-3.10
2024-01-08T02:14:26.411Z,-3.10
2024-01-08T02:16:55.083Z,-3.00
2024-01-08T02:19:23.700Z,-3.00
2024-01-08T02:21:52.303Z,-3.10
2024-01-08T02:24:22.206Z,-3.10
2024-01-08T02:26:50.795Z,-3.00
2024-01-08T02:29:20.963Z,-3.10
2024-01-08T02:31:49.927Z,-3.20
2024-01-08T02:34:18.529Z,-3.20
2024-01-08T02:36:47.053Z,-3.20
2024-01-08T02:39:15.469Z,-3.20
2024-01-08T02:41:45.330Z,-3.10
2024-01-08T02:44:14.095Z,-3.20
2024-01-08T02:46:42.850Z,-3.10
2024-01-08T02:49:11.546Z,-3.20
2024-01-08T02:51:40.157Z,-3.30
2024-01-08T02:54:08.693Z,-3.30
2024-01-08T02:56:37.201Z,-3.30
2024-01-08T02:59:08.182Z,-3.30
2024-01-08T03:01:37.605Z,-3.30
2024-01-08T03:04:06.784Z,-3.20
2024-01-08T03:06:35.366Z,-3.20
2024-01-08T03:09:03.897Z,-3.20
2024-01-08T03:11:32.439Z,-3.20
2024-01-08T03:14:01.145Z,-3.10
2024-01-08T03:16:31.166Z,-3.20
2024-01-08T03:18:59.777Z,-3.20
2024-01-08T03:21:28.309Z,-3.20
2024-01-08T03:23:57.058Z,-3.20
2024-01-08T03:26:25.775Z,-3.20
2024-01-08T03:28:54.498Z,-3.30
2024-01-08T03:31:23.064Z,-3.20
2024-01-08T03:33:53.194Z,-3.20
2024-01-08T03:36:21.740Z,-3.20
2024-01-08T03:38:50.329Z,-3.20
2024-01-08T03:41:18.949Z,-3.20
2024-01-08T03:43:47.607Z,-3.20
2024-01-08T03:46:16.191Z,-3.30
2024-01-08T03:48:45.091Z,-3.30
2024-01-08T03:51:15.193Z,-3.30
2024-01-08T03:53:43.743Z,-3.20
2024-01-08T03:56:12.392Z,-3.20
2024-01-08T03:58:40.918Z,-3.20
2024-01-08T04:01:09.456Z,-3.30
2024-01-08T04:03:38.156Z,-3.30
2024-01-08T04:06:07.437Z,-3.30
2024-01-08T04:08:37.524Z,-3.20
2024-01-08T04:11:06.407Z,-3.30
2024-01-08T04:13:34.946Z,-3.30
2024-01-08T04:16:03.524Z,-3.30
2024-01-08T04:18:32.262Z,-3.20
2024-01-08T04:21:00.909Z,-3.30
2024-01-08T04:23:29.793Z,-3.30
2024-01-08T04:26:00.485Z,-3.30
2024-01-08T04:28:29.081Z,-3.30
2024-01-08T04:30:57.675Z,-3.20
2024-01-08T04:33:26.373Z,-3.30
2024-01-08T04:35:54.902Z,-3.30
2024-01-08T04:38:23.773Z,-3.40
2024-01-08T04:40:52.308Z,-3.40
2024-01-08T04:43:22.307Z,-3.40
2024-01-08T04:45:50.783Z,-3.50
2024-01-08T04:48:20.044Z,-3.50
2024-01-08T04:50:49.237Z,-3.40
2024-01-08T04:53:17.979Z,-3.40
2024-01-08T04:55:46.572Z,-3.40
2024-01-08T04:58:15.113Z,-3.40
2024-01-08T05:00:45.154Z,-3.40
2024-01-08T05:03:13.998Z,-3.50
2024-01-08T05:05:43.234Z,-3.40
2024-01-08T05:08:11.862Z,-3.40
2024-01-08T05:10:40.334Z,-3.50
2024-01-08T05:13:08.803Z,-3.20
2024-01-08T05:15:37.408Z,-3.00
2024-01-08T05:18:10.226Z,-2.80
2024-01-08T05:20:38.903Z,-2.80
2024-01-08T05:23:07.696Z,-2.90
2024-01-08T05:25:36.452Z,-3.10
2024-01-08T05:28:06.659Z,-3.20
2024-01-08T05:30:36.127Z,-3.30
2024-01-08T05:33:06.524Z,-3.40
2024-01-08T05:35:36.724Z,-3.40
2024-01-08T05:38:06.312Z,-3.40
2024-01-08T05:40:35.032Z,-3.60
2024-01-08T05:43:04.067Z,-3.60
2024-01-08T05:45:32.747Z,-3.50
2024-01-08T05:48:01.586Z,-3.40
2024-01-08T05:50:31.574Z,-3.50
2024-01-08T05:53:01.611Z,-3.50
2024-01-08T05:55:30.130Z,-3.60
2024-01-08T05:57:58.674Z,-3.60
2024-01-08T06:00:27.190Z,-3.60
2024-01-08T06:02:55.684Z,-3.60
2024-01-08T06:05:24.496Z,-3.60
2024-01-08T06:07:54.833Z,-3.60
2024-01-08T06:10:23.470Z,-3.60
2024-01-08T06:12:51.938Z,-3.60
2024-01-08T06:15:20.440Z,-3.40
2024-01-08T06:17:49.394Z,-3.50
2024-01-08T06:20:18.180Z,-3.50
2024-01-08T06:22:46.673Z,-3.60
2024-01-08T06:25:16.854Z,-3.60
2024-01-08T06:27:45.356Z,-3.60
2024-01-08T06:30:14.921Z,-3.60
2024-01-08T06:32:43.742Z,-3.60
2024-01-08T06:35:12.436Z,-3.60
2024-01-08T06:37:40.979Z,-3.60
2024-01-08T06:40:10.797Z,-3.60
2024-01-08T06:42:52.505Z,-3.60
2024-01-08T06:45:29.028Z,-3.70
2024-01-08T06:47:57.874Z,-3.70
2024-01-08T06:50:27.198Z,-3.80
2024-01-08T06:52:55.877Z,-3.70
2024-01-08T06:55:24.494Z,-3.70
2024-01-08T06:57:54.463Z,-3.80
2024-01-08T07:00:23.248Z,-3.70
2024-01-08T07:02:52.364Z,-3.80
2024-01-08T07:05:21.272Z,-3.80
2024-01-08T07:07:49.848Z,-3.80
2024-01-08T07:10:18.351Z,-3.80
2024-01-08T07:12:47.932Z,-3.80
2024-01-08T07:15:38.946Z,-3.80
2024-01-08T07:18:10.361Z,-3.70
2024-01-08T07:20:39.726Z,-3.70
2024-01-08T07:23:10.786Z,-3.80
2024-01-08T07:25:40.167Z,-3.70
2024-01-08T07:28:10.019Z,-3.70
2024-01-08T07:30:40.593Z,-3.80
2024-01-08T07:33:09.448Z,-3.80
2024-01-08T07:35:38.328Z,-3.70
2024-01-08T07:38:07.426Z,-3.70
2024-01-08T07:40:36.058Z,-3.70
2024-01-08T07:43:04.723Z,-3.70
2024-01-08T07:45:33.239Z,-3.70
2024-01-08T07:48:03.449Z,-3.70
2024-01-08T07:50:32.171Z,-3.70
2024-01-08T07:53:00.766Z,-3.70
2024-01-08T07:55:29.205Z,-3.70
2024-01-08T07:57:57.910Z,-3.70
2024-01-08T08:00:26.905Z,-3.60
2024-01-08T08:02:56.146Z,-3.60
2024-01-08T08:05:29.473Z,-3.60
2024-01-08T08:08:00.437Z,-3.60
2024-01-08T08:10:29.155Z,-3.80
2024-01-08T08:12:57.790Z,-3.70
2024-01-08T08:15:26.738Z,-3.90
2024-01-08T08:17:55.750Z,-3.80
2024-01-08T08:20:26.136Z,-3.70
2024-01-08T08:22:54.916Z,-3.70
2024-01-08T08:25:23.731Z,-3.70
2024-01-08T08:27:52.132Z,-3.80
2024-01-08T08:30:23.814Z,-3.80
2024-01-08T08:32:52.753Z,-3.70
2024-01-08T08:35:21.455Z,-3.70
2024-01-08T08:37:53.926Z,-3.70
2024-01-08T08:40:24.452Z,-3.70
2024-01-08T08:42:53.513Z,-3.70
2024-01-08T08:45:22.391Z,-3.80
2024-01-08T08:47:51.981Z,-3.80
2024-01-08T08:50:21.097Z,-3.80
2024-01-08T08:52:51.273Z,-3.80
2024-01-08T08:55:19.890Z,-3.80
2024-01-08T08:57:48.609Z,-3.70
2024-01-08T09:00:20.794Z,-3.70
2024-01-08T09:02:53.984Z,-3.70
2024-01-08T09:05:32.314Z,-3.70
2024-01-08T09:08:07.699Z,-3.70
2024-01-08T09:10:36.811Z,-3.70
2024-01-08T09:13:05.703Z,-3.80
2024-01-08T09:15:34.384Z,-3.80
2024-01-08T09:18:03.836Z,-3.80
2024-01-08T09:20:34.698Z,-4.00
2024-01-08T09:23:03.410Z,-3.90
2024-01-08T09:25:33.590Z,-3.90
2024-01-08T09:28:02.163Z,-4.00
2024-01-08T09:30:30.844Z,-4.00
2024-01-08T09:33:00.239Z,-4.00
2024-01-08T09:35:29.142Z,-3.90
2024-01-08T09:37:57.960Z,-3.90
2024-01-08T09:40:26.900Z,-4.00
2024-01-08T09:43:00.382Z,-3.80
2024-01-08T09:45:30.804Z,-3.80
2024-01-08T09:47:59.660Z,-3.50
2024-01-08T09:50:28.627Z,-3.50
2024-01-08T09:52:58.483Z,-3.60
2024-01-08T09:55:28.154Z,-3.70
2024-01-08T09:57:58.989Z,-3.80
2024-01-08T10:00:27.614Z,-3.80
2024-01-08T10:02:58.408Z,-3.80
2024-01-08T10:05:30.099Z,-4.00
2024-01-08T10:08:02.118Z,-4.00
2024-01-08T10:10:31.318Z,-3.90
2024-01-08T10:13:01.552Z,-4.00
2024-01-08T10:15:30.615Z,-3.90
2024-01-08T10:18:03.709Z,-3.90
2024-01-08T10:20:33.159Z,-3.90
2024-01-08T10:23:11.952Z,-3.80
2024-01-08T10:25:41.547Z,-3.80
2024-01-08T10:28:12.642Z,-3.90
2024-01-08T10:30:43.026Z,-3.80
2024-01-08T10:33:12.055Z,-3.70
2024-01-08T10:35:42.873Z,-3.80
2024-01-08T10:38:11.939Z,-3.80
2024-01-08T10:40:40.801Z,-3.80
2024-01-08T10:43:10.466Z,-3.70
2024-01-08T10:45:40.532Z,-3.70
2024-01-08T10:48:16.130Z,-3.70
2024-01-08T10:50:48.695Z,-3.60
2024-01-08T10:53:25.536Z,-3.60
2024-01-08T10:55:54.797Z,-3.70
2024-01-08T10:58:32.711Z,-3.60
2024-01-08T11:01:03.639Z,-3.60
2024-01-08T11:03:32.574Z,-3.50
2024-01-08T11:06:04.110Z,-3.50
2024-01-08T11:08:34.977Z,-3.70
2024-01-08T11:11:13.066Z,-3.70
2024-01-08T11:13:42.662Z,-3.70
2024-01-08T11:16:15.776Z,-3.60
2024-01-08T11:18:44.461Z,-3.60
2024-01-08T11:21:13.226Z,-3.70
2024-01-08T11:23:44.406Z,-3.80
2024-01-08T11:26:17.058Z,-3.80
2024-01-08T11:29:04.637Z,-3.80
2024-01-08T11:32:09.419Z,-3.70
2024-01-08T11:35:02.547Z,-3.60
2024-01-08T11:37:36.053Z,-3.60
2024-01-08T11:40:09.295Z,-3.60
2024-01-08T11:42:37.831Z,-3.60
2024-01-08T11:45:06.985Z,-3.60
2024-01-08T11:47:38.254Z,-3.60
2024-01-08T11:50:07.838Z,-3.50
2024-01-08T11:52:38.554Z,-3.60
2024-01-08T11:55:09.581Z,-3.60
2024-01-08T11:57:38.552Z,-3.60
2024-01-08T12:00:14.758Z,-3.60
2024-01-08T12:02:45.416Z,-3.60
2024-01-08T12:05:14.373Z,-3.50
2024-01-08T12:07:43.719Z,-3.50
2024-01-08T12:10:14.701Z,-3.50
2024-01-08T12:12:43.456Z,-3.50
2024-01-08T12:15:12.037Z,-3.50
2024-01-08T12:17:41.627Z,-3.40
2024-01-08T12:20:13.572Z,-3.50
2024-01-08T12:22:42.807Z,-3.50
2024-01-08T12:25:13.219Z,-3.50
2024-01-08T12:27:42.341Z,-3.60
2024-01-08T12:30:13.713Z,-3.60
2024-01-08T12:32:42.960Z,-3.50
2024-01-08T12:35:16.604Z,-3.50
2024-01-08T12:37:46.526Z,-3.40
2024-01-08T12:40:15.793Z,-3.40
2024-01-08T12:42:45.481Z,-3.40
2024-01-08T12:45:14.153Z,-3.40
2024-01-08T12:47:42.895Z,-3.50
2024-01-08T12:50:13.045Z,-3.50
2024-01-08T12:52:41.606Z,-3.50
2024-01-08T12:55:10.859Z,-3.50
2024-01-08T12:57:39.479Z,-3.50
2024-01-08T13:00:09.206Z,-3.60
2024-01-08T13:02:37.777Z,-3.50
2024-01-08T13:05:07.067Z,-3.40
2024-01-08T13:07:37.407Z,-3.40
2024-01-08T13:10:07.258Z,-3.40
2024-01-08T13:12:37.600Z,-3.50
2024-01-08T13:15:07.812Z,-3.60
2024-01-08T13:17:36.846Z,-3.60
2024-01-08T13:20:19.037Z,-3.60
2024-01-08T13:22:55.964Z,-3.60
2024-01-08T13:25:25.310Z,-3.50
2024-01-08T13:27:53.895Z,-3.50
2024-01-08T13:30:22.679Z,-3.40
2024-01-08T13:32:51.509Z,-3.50
2024-01-08T13:35:20.165Z,-3.50
2024-01-08T13:37:49.406Z,-3.50
2024-01-08T13:40:22.516Z,-3.50
2024-01-08T13:42:52.797Z,-3.40
2024-01-08T13:45:21.459Z,-3.40
2024-01-08T13:47:51.563Z,-3.50
2024-01-08T13:50:20.684Z,-3.40
2024-01-08T13:52:49.334Z,-3.50
2024-01-08T13:55:19.161Z,-3.50
